Time;durP1;ratioP1;P1;durP2;ratioP2;P2;SDS_P1;SDS_P2;PMS_P1;PMS_P2;Temp;Humidity;BMP_temperature;BMP_pressure;BME280_temperature;BME280_humidity;BME280_pressure;Samples;Min_cycle;Max_cycle;Signal;HPM_P1;HPM_P2
2021/09/30 00:01:27;;;;;;;9.30;1.73;;;13.00;99.90;;;;;;5010696;28;20207;-89
2021/09/30 00:03:54;;;;;;;10.47;2.30;;;13.00;99.90;;;;;;5010543;28;20667;-89
2021/09/30 00:06:21;;;;;;;11.17;2.03;;;13.10;99.90;;;;;;5027312;28;20222;-88
2021/09/30 00:08:48;;;;;;;12.73;2.00;;;13.20;99.90;;;;;;5030399;28;20231;-88
2021/09/30 00:11:20;;;;;;;6.13;1.97;;;13.20;99.90;;;;;;5029135;28;20230;-88
2021/09/30 00:13:51;;;;;;;7.53;1.90;;;13.20;99.90;;;;;;5011283;28;20274;-90
2021/09/30 00:16:53;;;;;;;7.53;2.70;;;13.30;99.90;;;;;;5013701;28;20204;-91
2021/09/30 00:33:18;;;;;;;8.60;1.50;;;13.50;99.90;;;;;;5039104;28;20178;-89
2021/09/30 00:35:56;;;;;;;7.83;1.50;;;13.50;99.90;;;;;;5038776;28;20279;-89
2021/09/30 00:41:18;;;;;;;8.30;1.80;;;13.60;99.90;;;;;;5011635;28;20257;-86
2021/09/30 00:46:41;;;;;;;7.20;1.47;;;13.50;99.90;;;;;;5015703;28;20187;-89
2021/09/30 00:49:17;;;;;;;4.17;1.20;;;13.60;99.90;;;;;;5013201;28;20822;-88
2021/09/30 00:51:52;;;;;;;5.20;1.40;;;13.50;99.90;;;;;;5013453;28;20195;-83
2021/09/30 02:19:17;;;;;;;8.90;1.53;;;13.50;99.90;;;;;;5013462;28;20198;-87
2021/09/30 02:27:34;;;;;;;7.33;2.13;;;13.60;99.90;;;;;;5004107;28;20218;-89
2021/09/30 02:30:21;;;;;;;9.10;1.67;;;13.50;99.90;;;;;;5011057;28;20203;-92
2021/09/30 02:58:27;;;;;;;11.03;1.73;;;12.50;99.90;;;;;;5007528;28;20264;-90
2021/09/30 03:00:56;;;;;;;10.10;1.70;;;12.30;99.90;;;;;;5011215;28;20213;-87
2021/09/30 03:03:25;;;;;;;8.47;1.70;;;12.40;99.90;;;;;;5010771;28;20234;-90
2021/09/30 03:05:54;;;;;;;7.00;1.80;;;12.30;99.90;;;;;;5011197;28;20203;-88
2021/09/30 03:08:26;;;;;;;9.97;2.27;;;12.30;99.90;;;;;;5010303;28;20222;-88
2021/09/30 03:10:54;;;;;;;9.07;1.90;;;12.30;99.90;;;;;;4995359;28;20220;-87
2021/09/30 03:13:22;;;;;;;11.67;1.93;;;12.30;99.90;;;;;;4991310;28;20289;-88
2021/09/30 03:15:55;;;;;;;5.80;1.10;;;12.40;99.90;;;;;;4991819;28;20199;-88
2021/09/30 03:18:38;;;;;;;4.40;1.13;;;12.30;99.90;;;;;;5009733;28;20199;-87
2021/09/30 03:23:50;;;;;;;11.77;2.10;;;12.10;99.90;;;;;;5009835;28;20201;-88
2021/09/30 03:26:17;;;;;;;12.63;2.60;;;12.10;99.90;;;;;;5011703;28;20207;-90
2021/09/30 03:28:45;;;;;;;13.07;2.43;;;12.20;99.90;;;;;;5011278;28;20226;-88
2021/09/30 03:31:14;;;;;;;12.80;2.10;;;12.30;99.90;;;;;;5004012;28;20215;-90
2021/09/30 03:33:41;;;;;;;13.53;3.60;;;12.30;99.90;;;;;;5002784;28;20203;-92
2021/09/30 03:36:08;;;;;;;15.90;2.57;;;12.50;99.90;;;;;;4993058;28;20207;-88
2021/09/30 03:38:35;;;;;;;11.10;2.57;;;12.50;99.90;;;;;;5009390;28;20206;-88
2021/09/30 03:41:04;;;;;;;14.73;3.07;;;12.70;99.90;;;;;;5010244;28;20247;-90
2021/09/30 03:43:31;;;;;;;16.10;3.23;;;12.70;99.90;;;;;;5001615;28;20643;-87
2021/09/30 03:45:58;;;;;;;15.37;2.83;;;12.80;99.90;;;;;;5010340;28;20627;-91
2021/09/30 03:48:25;;;;;;;10.67;2.60;;;12.80;99.90;;;;;;5009450;28;20239;-87
2021/09/30 03:51:03;;;;;;;10.20;2.60;;;12.90;99.90;;;;;;4994324;28;20215;-88
2021/09/30 03:53:45;;;;;;;12.60;3.00;;;12.90;99.90;;;;;;4994762;28;20251;-87
2021/09/30 03:56:31;;;;;;;12.13;2.67;;;13.00;99.90;;;;;;4994715;28;20311;-88
2021/09/30 04:01:55;;;;;;;13.30;2.63;;;13.10;99.90;;;;;;4991073;28;20199;-87
2021/09/30 04:04:22;;;;;;;8.73;2.73;;;13.10;99.90;;;;;;4994310;28;20305;-87
2021/09/30 04:06:49;;;;;;;13.60;2.30;;;13.10;99.90;;;;;;4996857;28;20208;-91
2021/09/30 04:09:16;;;;;;;9.57;2.10;;;13.20;99.90;;;;;;5013678;28;20232;-86
2021/09/30 04:11:44;;;;;;;11.67;2.70;;;13.20;99.90;;;;;;5014464;28;20607;-89
2021/09/30 04:14:11;;;;;;;10.90;2.20;;;13.30;99.90;;;;;;5014172;28;20203;-92
2021/09/30 04:16:38;;;;;;;16.73;2.53;;;13.30;99.90;;;;;;5012611;28;20600;-92
2021/09/30 04:19:05;;;;;;;11.90;2.77;;;13.30;99.90;;;;;;5005706;28;20214;-91
2021/09/30 04:21:32;;;;;;;12.60;2.63;;;13.30;99.90;;;;;;5009828;28;20208;-89
2021/09/30 04:23:59;;;;;;;16.37;3.07;;;13.30;99.90;;;;;;4993736;28;20404;-88
2021/09/30 04:26:26;;;;;;;14.00;2.97;;;13.30;99.90;;;;;;4993878;28;20288;-85
2021/09/30 04:28:54;;;;;;;12.60;2.13;;;13.30;99.90;;;;;;4993980;28;20228;-87
2021/09/30 04:31:23;;;;;;;11.53;2.93;;;13.30;99.90;;;;;;4998669;28;20207;-90
2021/09/30 04:33:52;;;;;;;12.23;2.50;;;13.30;99.90;;;;;;5012462;28;20207;-88
2021/09/30 04:36:21;;;;;;;12.73;2.63;;;13.30;99.90;;;;;;5013765;28;20225;-87
2021/09/30 04:38:48;;;;;;;14.57;2.20;;;13.30;99.90;;;;;;4996249;28;20286;-88
2021/09/30 04:41:15;;;;;;;11.73;2.40;;;13.30;99.90;;;;;;5002287;28;20649;-85
2021/09/30 04:43:44;;;;;;;8.60;2.00;;;13.20;99.90;;;;;;5013611;28;20600;-86
2021/09/30 04:46:13;;;;;;;10.73;2.20;;;13.10;99.90;;;;;;5013539;28;20254;-86
2021/09/30 04:48:40;;;;;;;8.87;2.00;;;13.20;99.90;;;;;;5032799;28;20256;-85
2021/09/30 04:51:06;;;;;;;9.30;2.40;;;13.20;99.90;;;;;;5033249;28;20885;-88
2021/09/30 04:53:33;;;;;;;11.43;1.90;;;13.20;99.90;;;;;;5033132;28;20281;-87
2021/09/30 04:56:00;;;;;;;12.00;2.67;;;13.20;99.90;;;;;;5025136;28;20214;-87
2021/09/30 04:58:27;;;;;;;12.80;2.77;;;13.20;99.90;;;;;;5011414;28;20195;-86
2021/09/30 05:00:55;;;;;;;8.83;2.43;;;13.30;99.90;;;;;;5011380;28;20427;-83
2021/09/30 05:03:23;;;;;;;11.60;2.30;;;13.20;99.90;;;;;;5008239;28;20210;-87
2021/09/30 05:05:50;;;;;;;11.87;3.10;;;13.30;99.90;;;;;;5022731;28;20202;-90
2021/09/30 05:08:17;;;;;;;8.40;2.40;;;13.20;99.90;;;;;;5032388;28;20614;-87
2021/09/30 05:10:46;;;;;;;10.67;2.40;;;13.20;99.90;;;;;;5024443;28;20207;-84
2021/09/30 05:13:17;;;;;;;9.17;2.63;;;13.10;99.90;;;;;;5010547;28;20298;-86
2021/09/30 05:15:44;;;;;;;8.63;2.30;;;13.20;99.90;;;;;;5009898;28;20195;-85
2021/09/30 05:18:13;;;;;;;10.77;2.07;;;13.20;99.90;;;;;;5009494;28;20215;-87
2021/09/30 05:20:41;;;;;;;9.80;2.30;;;13.10;99.90;;;;;;5009700;28;20239;-85
2021/09/30 05:23:08;;;;;;;8.00;1.93;;;13.10;99.90;;;;;;5011783;28;20238;-87
2021/09/30 05:25:35;;;;;;;8.13;1.70;;;13.00;99.90;;;;;;5012428;28;20207;-88
2021/09/30 05:28:03;;;;;;;5.80;1.57;;;13.00;99.90;;;;;;5012058;28;20200;-86
2021/09/30 05:30:30;;;;;;;8.73;2.57;;;13.00;99.90;;;;;;5011737;28;20269;-88
2021/09/30 05:32:57;;;;;;;9.70;1.60;;;13.00;99.90;;;;;;5011240;28;20227;-86
2021/09/30 05:35:24;;;;;;;10.43;2.17;;;13.10;99.90;;;;;;5009065;28;20234;-86
2021/09/30 05:37:52;;;;;;;8.60;2.10;;;13.00;99.90;;;;;;5023657;28;20294;-86
2021/09/30 05:40:20;;;;;;;10.53;2.30;;;12.90;99.90;;;;;;5031393;28;20199;-88
2021/09/30 05:42:47;;;;;;;9.30;2.77;;;12.80;99.90;;;;;;5031378;28;20290;-87
2021/09/30 05:45:16;;;;;;;7.40;1.70;;;12.90;99.90;;;;;;5018959;28;20502;-87
2021/09/30 05:47:44;;;;;;;7.17;2.07;;;12.90;99.90;;;;;;5011168;28;20199;-84
2021/09/30 05:50:12;;;;;;;6.67;2.00;;;12.80;99.90;;;;;;5010444;28;20230;-86
2021/09/30 05:52:39;;;;;;;12.00;2.10;;;12.90;99.90;;;;;;5014905;28;20209;-87
2021/09/30 05:55:08;;;;;;;6.83;1.93;;;12.80;99.90;;;;;;5030232;28;20204;-88
2021/09/30 05:57:35;;;;;;;7.03;1.70;;;12.90;99.90;;;;;;5029479;28;20206;-87
2021/09/30 06:00:11;;;;;;;9.60;1.80;;;12.90;99.90;;;;;;5012206;28;20207;-82
2021/09/30 06:11:00;;;;;;;9.10;2.03;;;12.90;99.90;;;;;;5009902;28;20222;-85
2021/09/30 06:13:31;;;;;;;10.17;1.70;;;12.90;99.90;;;;;;5010537;28;20243;-83
2021/09/30 06:15:59;;;;;;;8.77;1.77;;;12.90;99.90;;;;;;5011527;28;20203;-90
2021/09/30 06:18:26;;;;;;;7.07;1.70;;;12.90;99.90;;;;;;5014815;28;20235;-85
2021/09/30 06:20:52;;;;;;;9.87;2.43;;;12.90;99.90;;;;;;5012913;28;20222;-88
2021/09/30 06:23:21;;;;;;;7.97;1.50;;;13.00;99.90;;;;;;5025485;28;20202;-88
2021/09/30 06:25:47;;;;;;;6.50;1.87;;;13.00;99.90;;;;;;5033663;28;20211;-86
2021/09/30 06:28:16;;;;;;;8.63;1.70;;;13.10;99.90;;;;;;5033050;28;20207;-82
2021/09/30 06:30:42;;;;;;;6.50;1.60;;;13.10;99.90;;;;;;5031247;28;20198;-89
2021/09/30 06:33:09;;;;;;;6.67;1.60;;;13.10;99.90;;;;;;5031069;28;20285;-87
2021/09/30 06:35:36;;;;;;;7.40;1.70;;;13.20;99.90;;;;;;5029628;28;20218;-87
2021/09/30 06:38:03;;;;;;;9.40;2.10;;;13.20;99.90;;;;;;5031762;28;20607;-88
2021/09/30 06:40:31;;;;;;;5.77;1.97;;;13.20;99.90;;;;;;5028382;28;20238;-87
2021/09/30 06:42:58;;;;;;;5.97;1.67;;;13.30;99.90;;;;;;5015627;28;20655;-86
2021/09/30 06:45:26;;;;;;;6.97;1.67;;;13.30;99.90;;;;;;5009735;28;20195;-84
2021/09/30 06:47:53;;;;;;;6.80;1.77;;;13.40;99.90;;;;;;5015411;28;20210;-85
2021/09/30 06:50:20;;;;;;;6.83;2.10;;;13.40;99.90;;;;;;5030336;28;20229;-91
2021/09/30 06:52:47;;;;;;;12.40;2.73;;;13.40;99.90;;;;;;5030609;28;20205;-88
2021/09/30 06:55:15;;;;;;;9.03;1.80;;;13.50;99.90;;;;;;5030468;28;20199;-86
2021/09/30 06:57:42;;;;;;;7.87;1.80;;;13.50;99.90;;;;;;5030321;28;20555;-86
2021/09/30 07:00:10;;;;;;;9.87;2.00;;;13.50;99.90;;;;;;5029374;28;20226;-82
2021/09/30 07:02:40;;;;;;;7.57;1.93;;;13.50;99.90;;;;;;5029092;28;20647;-84
2021/09/30 07:05:09;;;;;;;6.30;2.17;;;13.50;99.90;;;;;;5028948;28;20222;-87
2021/09/30 07:07:36;;;;;;;5.77;2.03;;;13.40;99.90;;;;;;5020003;28;20215;-90
2021/09/30 07:10:04;;;;;;;9.80;1.90;;;13.40;99.90;;;;;;5008794;28;20799;-88
2021/09/30 07:12:33;;;;;;;7.97;1.87;;;13.40;99.90;;;;;;4993076;28;20299;-88
2021/09/30 07:15:00;;;;;;;12.10;2.07;;;13.40;99.90;;;;;;5009492;28;20222;-87
2021/09/30 07:17:28;;;;;;;7.40;1.70;;;13.40;99.90;;;;;;5009403;28;20595;-90
2021/09/30 07:19:58;;;;;;;5.80;1.70;;;13.50;99.90;;;;;;5009057;28;20200;-89
2021/09/30 07:22:26;;;;;;;7.27;2.33;;;13.60;99.90;;;;;;5010039;28;20733;-90
2021/09/30 07:24:53;;;;;;;4.63;1.70;;;13.70;99.90;;;;;;5012164;28;20207;-83
2021/09/30 07:27:19;;;;;;;5.47;1.60;;;13.80;99.90;;;;;;5012409;28;20850;-81
2021/09/30 07:29:53;;;;;;;8.43;2.07;;;13.90;99.90;;;;;;5007842;28;20626;-81
2021/09/30 07:32:20;;;;;;;6.20;1.70;;;13.90;99.90;;;;;;5012540;28;20735;-84
2021/09/30 07:34:47;;;;;;;5.17;1.53;;;13.90;99.90;;;;;;5013138;28;20210;-83
2021/09/30 07:37:15;;;;;;;7.03;1.67;;;13.90;99.90;;;;;;5018825;28;20518;-85
2021/09/30 07:39:42;;;;;;;7.40;2.20;;;13.90;99.90;;;;;;5032477;28;20206;-90
2021/09/30 07:42:10;;;;;;;5.97;1.40;;;13.90;99.90;;;;;;5031812;28;20238;-84
2021/09/30 07:44:36;;;;;;;6.30;1.90;;;14.00;99.90;;;;;;5029314;28;20619;-84
2021/09/30 07:47:04;;;;;;;9.40;1.80;;;14.10;99.90;;;;;;5012515;28;20505;-82
2021/09/30 07:49:33;;;;;;;10.40;2.27;;;14.20;99.90;;;;;;5018392;28;20249;-84
2021/09/30 07:52:00;;;;;;;7.93;1.60;;;14.20;99.90;;;;;;5031631;28;20199;-84
2021/09/30 07:54:29;;;;;;;7.43;2.00;;;14.30;99.90;;;;;;5031461;28;20203;-83
2021/09/30 07:56:55;;;;;;;7.73;2.30;;;14.30;99.90;;;;;;5032184;28;20202;-88
2021/09/30 07:59:22;;;;;;;6.47;2.07;;;14.30;99.90;;;;;;5014566;28;20608;-84
2021/09/30 08:01:49;;;;;;;3.60;1.53;;;14.30;99.90;;;;;;5011626;28;20214;-89
2021/09/30 08:04:16;;;;;;;2.63;1.33;;;14.40;99.90;;;;;;5011869;28;20230;-89
2021/09/30 08:06:43;;;;;;;7.00;2.53;;;14.40;99.90;;;;;;5012665;28;20207;-87
2021/09/30 08:09:10;;;;;;;8.80;1.70;;;14.50;99.90;;;;;;5031574;28;20319;-83
2021/09/30 08:11:38;;;;;;;6.47;2.17;;;14.50;99.90;;;;;;5032580;28;20231;-92
2021/09/30 08:14:05;;;;;;;7.50;3.07;;;14.50;99.90;;;;;;5032244;28;20241;-94
2021/09/30 08:16:32;;;;;;;12.40;3.77;;;14.60;99.90;;;;;;5034297;28;20199;-89
2021/09/30 08:18:58;;;;;;;7.13;3.23;;;14.60;99.90;;;;;;5032928;28;20213;-84
2021/09/30 08:21:27;;;;;;;8.77;3.03;;;14.70;99.90;;;;;;5033443;28;20195;-94
2021/09/30 08:23:54;;;;;;;11.40;3.93;;;14.70;99.90;;;;;;5032495;28;20277;-83
2021/09/30 08:26:23;;;;;;;5.50;2.27;;;14.80;99.90;;;;;;5031930;28;20214;-92
2021/09/30 08:28:52;;;;;;;8.37;2.83;;;14.90;99.90;;;;;;5023300;28;20219;-86
2021/09/30 08:31:21;;;;;;;7.60;1.80;;;14.90;99.90;;;;;;5032010;28;20552;-83
2021/09/30 08:33:49;;;;;;;8.43;2.30;;;14.90;99.90;;;;;;5031630;28;20206;-88
2021/09/30 08:36:16;;;;;;;10.20;3.23;;;14.90;99.90;;;;;;5033239;28;20305;-91
2021/09/30 08:38:44;;;;;;;9.67;3.07;;;15.00;99.90;;;;;;5032649;28;20198;-90
2021/09/30 08:41:13;;;;;;;6.97;1.63;;;15.10;99.90;;;;;;5032206;28;20658;-92
2021/09/30 08:43:40;;;;;;;10.10;2.50;;;15.10;99.90;;;;;;5032264;28;20194;-91
2021/09/30 08:46:08;;;;;;;6.23;1.80;;;15.20;99.90;;;;;;5031826;28;20209;-83
2021/09/30 08:48:36;;;;;;;8.30;2.80;;;15.20;99.90;;;;;;5032019;28;20735;-94
2021/09/30 08:51:03;;;;;;;11.13;3.40;;;15.20;99.90;;;;;;5022992;28;20322;-87
2021/09/30 08:53:30;;;;;;;7.57;1.83;;;15.20;99.90;;;;;;5011710;28;20324;-85
2021/09/30 08:55:57;;;;;;;3.60;1.20;;;15.20;99.90;;;;;;5011780;28;20196;-92
2021/09/30 08:58:23;;;;;;;3.93;1.40;;;15.20;99.90;;;;;;5011969;28;20219;-92
2021/09/30 09:00:53;;;;;;;4.53;1.20;;;15.10;99.90;;;;;;5011939;28;20599;-88
2021/09/30 09:03:33;;;;;;;9.03;2.43;;;15.10;99.90;;;;;;5013033;28;20340;-88
2021/09/30 09:06:00;;;;;;;9.33;1.93;;;15.00;99.90;;;;;;5011836;28;20203;-92
2021/09/30 09:08:27;;;;;;;9.83;2.43;;;15.10;99.90;;;;;;5011882;28;20232;-92
2021/09/30 09:10:56;;;;;;;9.70;2.23;;;15.10;99.90;;;;;;5010122;28;20544;-89
2021/09/30 09:13:23;;;;;;;4.10;1.73;;;15.20;99.90;;;;;;5010490;28;20454;-92
2021/09/30 09:15:54;;;;;;;7.97;1.70;;;15.20;99.90;;;;;;5012492;28;20211;-89
2021/09/30 09:18:23;;;;;;;6.33;1.07;;;15.40;99.90;;;;;;5012488;28;20210;-81
2021/09/30 09:21:01;;;;;;;9.23;1.80;;;15.50;99.90;;;;;;5011275;28;20225;-87
2021/09/30 09:23:29;;;;;;;9.83;2.10;;;15.70;99.90;;;;;;5012062;28;20500;-87
2021/09/30 09:26:07;;;;;;;5.50;1.37;;;15.90;99.90;;;;;;5013147;28;20199;-92
2021/09/30 09:28:35;;;;;;;5.30;1.40;;;15.90;99.90;;;;;;5012184;28;20617;-83
2021/09/30 09:31:01;;;;;;;3.60;1.00;;;15.90;99.90;;;;;;5012575;28;20227;-88
2021/09/30 09:33:29;;;;;;;3.10;0.97;;;16.00;99.90;;;;;;5029184;28;20214;-88
2021/09/30 09:36:02;;;;;;;4.77;1.20;;;16.10;99.90;;;;;;5031807;28;20226;-89
2021/09/30 09:38:32;;;;;;;3.70;0.97;;;16.30;99.90;;;;;;5025928;28;20207;-90
2021/09/30 09:41:02;;;;;;;4.47;1.40;;;16.30;99.90;;;;;;5017853;28;20441;-91
2021/09/30 09:43:32;;;;;;;7.10;1.53;;;16.20;99.90;;;;;;5013577;28;20226;-90
2021/09/30 09:46:00;;;;;;;4.47;1.30;;;16.20;99.90;;;;;;5011402;28;20195;-87
2021/09/30 09:48:27;;;;;;;3.33;1.10;;;16.40;99.90;;;;;;5011877;28;20210;-92
2021/09/30 09:50:55;;;;;;;5.87;1.23;;;16.50;99.90;;;;;;5012461;28;20554;-92
2021/09/30 09:53:28;;;;;;;3.93;0.90;;;16.50;99.90;;;;;;5011188;28;20229;-83
2021/09/30 09:56:09;;;;;;;5.93;1.20;;;16.60;99.90;;;;;;5012657;28;20503;-86
2021/09/30 09:58:44;;;;;;;5.03;1.10;;;16.80;99.90;;;;;;5011270;28;20214;-92
2021/09/30 10:01:10;;;;;;;8.40;1.40;;;16.90;99.90;;;;;;5007888;28;20206;-88
2021/09/30 10:03:38;;;;;;;6.73;1.53;;;16.80;99.90;;;;;;5008284;28;20231;-89
2021/09/30 10:06:06;;;;;;;4.55;2.05;;;16.80;99.90;;;;;;5010664;28;20203;-92
2021/09/30 10:08:35;;;;;;;4.70;1.27;;;16.90;99.90;;;;;;5009671;28;20217;-86
2021/09/30 10:11:02;;;;;;;5.55;1.25;;;16.90;99.90;;;;;;5024641;28;20234;-85
2021/09/30 10:13:32;;;;;;;5.13;1.20;;;16.90;99.90;;;;;;5030043;28;20615;-87
2021/09/30 10:15:59;;;;;;;7.57;1.00;;;17.10;99.90;;;;;;5030510;28;20202;-91
2021/09/30 10:18:28;;;;;;;6.53;1.10;;;17.20;99.90;;;;;;5011099;28;20517;-84
2021/09/30 10:20:56;;;;;;;4.90;1.20;;;17.30;99.90;;;;;;5011080;28;20435;-84
2021/09/30 10:23:25;;;;;;;6.22;1.33;;;17.30;99.90;;;;;;5008621;28;20897;-86
2021/09/30 10:25:57;;;;;;;3.65;1.27;;;17.30;99.90;;;;;;5009886;28;20199;-87
2021/09/30 10:28:25;;;;;;;4.75;1.30;;;17.20;99.90;;;;;;5010373;28;20210;-90
2021/09/30 10:30:54;;;;;;;3.70;1.30;;;17.20;99.90;;;;;;5011233;28;20246;-87
2021/09/30 10:33:39;;;;;;;3.80;1.20;;;17.10;99.90;;;;;;5010591;28;20588;-88
2021/09/30 10:36:32;;;;;;;7.00;1.95;;;17.10;99.90;;;;;;5010597;28;20576;-86
2021/09/30 10:39:21;;;;;;;6.57;2.07;;;17.10;99.90;;;;;;5010149;28;20221;-80
2021/09/30 10:41:48;;;;;;;7.30;2.25;;;17.10;99.90;;;;;;5009398;28;20277;-86
2021/09/30 10:44:18;;;;;;;9.45;2.42;;;17.00;99.90;;;;;;5009779;28;20195;-87
2021/09/30 10:46:47;;;;;;;7.47;2.50;;;17.00;99.90;;;;;;5024121;28;20222;-85
2021/09/30 10:49:42;;;;;;;10.35;2.85;;;17.00;99.90;;;;;;5029685;28;20206;-87
2021/09/30 10:52:32;;;;;;;5.63;2.00;;;16.80;99.90;;;;;;5028986;28;20194;-90
2021/09/30 10:55:27;;;;;;;7.88;2.40;;;16.70;99.90;;;;;;5030020;28;20210;-94
2021/09/30 10:57:56;;;;;;;3.50;1.35;;;16.50;99.90;;;;;;5031062;28;20198;-93
2021/09/30 11:00:52;;;;;;;6.73;1.80;;;16.40;99.90;;;;;;5026236;28;20199;-91
2021/09/30 11:03:23;;;;;;;5.57;1.83;;;16.30;99.90;;;;;;5012441;28;20286;-85
2021/09/30 11:06:22;;;;;;;6.15;1.63;;;16.20;99.90;;;;;;5011291;28;20286;-89
2021/09/30 11:09:11;;;;;;;5.78;1.17;;;16.20;99.90;;;;;;5012090;28;20195;-87
2021/09/30 11:11:41;;;;;;;6.80;1.47;;;16.20;99.90;;;;;;5013854;28;20254;-90
2021/09/30 11:14:22;;;;;;;6.40;1.73;;;16.20;99.90;;;;;;5017231;28;20273;-91
2021/09/30 11:16:53;;;;;;;5.30;1.77;;;16.20;99.90;;;;;;5018267;28;20210;-83
2021/09/30 11:19:29;;;;;;;6.83;1.60;;;16.30;99.90;;;;;;5032486;28;20215;-89
2021/09/30 11:21:56;;;;;;;6.63;1.53;;;16.30;99.90;;;;;;5032129;28;20682;-93
2021/09/30 11:24:33;;;;;;;6.23;1.30;;;16.40;99.90;;;;;;5041948;28;20185;-93
2021/09/30 11:27:12;;;;;;;4.27;1.70;;;16.30;99.90;;;;;;5037315;28;20204;-92
2021/09/30 11:29:41;;;;;;;6.20;1.40;;;16.30;99.90;;;;;;5033741;28;20213;-93
2021/09/30 11:32:27;;;;;;;4.93;1.33;;;16.40;99.90;;;;;;5034011;28;20305;-92
2021/09/30 11:35:02;;;;;;;6.17;1.30;;;16.50;99.90;;;;;;5032322;28;20209;-90
2021/09/30 11:37:40;;;;;;;7.30;1.47;;;16.50;99.90;;;;;;5032433;28;20281;-88
2021/09/30 11:40:13;;;;;;;6.13;1.53;;;16.60;99.90;;;;;;5032066;28;20198;-85
2021/09/30 11:42:42;;;;;;;5.30;1.67;;;16.60;99.90;;;;;;5015895;28;20588;-82
2021/09/30 11:45:12;;;;;;;6.95;1.65;;;16.60;99.90;;;;;;5069965;23;20248;-87
2021/09/30 11:47:41;;;;;;;5.82;1.70;;;16.50;99.90;;;;;;5068121;28;20209;-93
2021/09/30 11:50:15;;;;;;;7.43;1.70;;;16.50;99.90;;;;;;5067495;28;20201;-90
2021/09/30 11:52:42;;;;;;;5.67;1.90;;;16.40;99.90;;;;;;5068756;28;20211;-93
2021/09/30 11:55:14;;;;;;;5.88;1.40;;;16.30;99.90;;;;;;5068738;28;20229;-89
2021/09/30 11:57:52;;;;;;;8.27;1.40;;;16.20;99.90;;;;;;5070261;28;20193;-86
2021/09/30 12:00:20;;;;;;;9.93;1.67;;;16.30;99.90;;;;;;5057798;28;20218;-89
2021/09/30 12:02:57;;;;;;;6.27;1.40;;;16.30;99.90;;;;;;5048526;28;20237;-84
2021/09/30 12:05:28;;;;;;;5.90;1.73;;;16.20;99.90;;;;;;5048226;28;20258;-85
2021/09/30 12:07:55;;;;;;;8.75;1.90;;;16.20;99.90;;;;;;5048318;28;20240;-89
2021/09/30 12:10:24;;;;;;;5.13;1.65;;;16.20;99.90;;;;;;5053394;28;20222;-90
2021/09/30 12:12:51;;;;;;;4.82;1.60;;;16.20;99.90;;;;;;5054928;28;20205;-87
2021/09/30 12:15:18;;;;;;;7.47;1.70;;;16.20;99.90;;;;;;5054041;28;20212;-87
2021/09/30 12:17:45;;;;;;;8.30;1.88;;;16.30;99.90;;;;;;5053745;28;20884;-89
2021/09/30 12:20:14;;;;;;;5.07;1.27;;;16.20;99.90;;;;;;5052879;28;20594;-86
2021/09/30 12:22:43;;;;;;;7.43;1.60;;;16.20;99.90;;;;;;5053686;28;20197;-90
2021/09/30 12:25:12;;;;;;;7.20;1.43;;;16.10;99.90;;;;;;5052013;28;20602;-89
2021/09/30 12:27:43;;;;;;;10.83;1.77;;;16.10;99.90;;;;;;5052077;28;20190;-88
2021/09/30 12:30:13;;;;;;;6.83;1.57;;;16.10;99.90;;;;;;5053141;28;20212;-90
2021/09/30 12:32:42;;;;;;;8.80;2.63;;;16.00;99.90;;;;;;5055492;28;20213;-90
2021/09/30 12:35:11;;;;;;;5.22;1.58;;;16.00;99.90;;;;;;5052703;28;20194;-89
2021/09/30 12:37:45;;;;;;;6.87;2.13;;;15.90;99.90;;;;;;5051584;28;20202;-86
2021/09/30 12:40:14;;;;;;;7.10;1.70;;;15.80;99.90;;;;;;5051323;28;20500;-82
2021/09/30 12:43:05;;;;;;;8.03;2.03;;;15.70;99.90;;;;;;5050657;28;20233;-87
2021/09/30 12:45:36;;;;;;;5.03;1.13;;;15.60;99.90;;;;;;5058416;28;20213;-94
2021/09/30 12:48:08;;;;;;;8.67;1.40;;;15.50;99.90;;;;;;5074889;28;20228;-94
2021/09/30 12:50:38;;;;;;;8.47;1.47;;;15.40;99.90;;;;;;5072213;28;20229;-89
2021/09/30 12:53:05;;;;;;;3.90;1.50;;;15.40;99.90;;;;;;5073684;28;20205;-84
2021/09/30 12:55:33;;;;;;;5.97;1.10;;;15.30;99.90;;;;;;5074723;28;20283;-93
2021/09/30 12:58:02;;;;;;;6.07;1.40;;;15.30;99.90;;;;;;5073465;28;20240;-94
2021/09/30 13:00:34;;;;;;;7.93;1.53;;;15.30;99.90;;;;;;5055780;28;20210;-91
2021/09/30 13:03:16;;;;;;;4.33;1.60;;;15.20;99.90;;;;;;5054186;28;20236;-87
2021/09/30 13:05:51;;;;;;;6.17;1.50;;;15.10;99.90;;;;;;5055493;28;20204;-93
2021/09/30 13:08:42;;;;;;;7.93;1.63;;;15.10;99.90;;;;;;5064072;28;20274;-84
2021/09/30 13:11:23;;;;;;;4.13;1.40;;;15.20;99.90;;;;;;5073411;28;20224;-91
2021/09/30 13:14:18;;;;;;;4.17;1.43;;;15.30;99.90;;;;;;5072542;28;20324;-88
2021/09/30 13:16:47;;;;;;;5.63;1.30;;;15.50;99.90;;;;;;5069561;28;20616;-92
2021/09/30 13:19:14;;;;;;;6.40;1.67;;;15.50;99.90;;;;;;5051224;28;20201;-84
2021/09/30 13:22:02;;;;;;;3.47;1.20;;;15.60;99.90;;;;;;5051657;28;20198;-84
2021/09/30 13:24:29;;;;;;;6.20;1.30;;;15.60;99.90;;;;;;5052790;28;20186;-86
2021/09/30 13:26:57;;;;;;;8.43;1.40;;;15.60;99.90;;;;;;5053181;28;20280;-86
2021/09/30 13:29:30;;;;;;;5.67;1.60;;;15.60;99.90;;;;;;5051562;28;20518;-84
2021/09/30 13:31:57;;;;;;;6.00;1.13;;;15.70;99.90;;;;;;5052270;28;20617;-82
2021/09/30 13:34:24;;;;;;;2.60;1.60;;;15.70;99.90;;;;;;5064487;28;20209;-88
2021/09/30 13:36:52;;;;;;;5.10;1.60;;;15.80;99.90;;;;;;5074223;28;20478;-85
2021/09/30 13:39:19;;;;;;;7.03;1.07;;;15.80;99.90;;;;;;5072994;28;20295;-86
2021/09/30 13:41:48;;;;;;;2.90;1.30;;;15.90;99.90;;;;;;5072000;28;20233;-93
2021/09/30 13:44:18;;;;;;;4.13;1.60;;;15.90;99.90;;;;;;5052551;28;20242;-86
2021/09/30 13:46:47;;;;;;;8.07;1.53;;;15.90;99.90;;;;;;5053487;28;20313;-88
2021/09/30 13:49:16;;;;;;;5.50;1.20;;;15.80;99.90;;;;;;5054298;28;20234;-84
2021/09/30 13:51:43;;;;;;;4.83;1.40;;;15.80;99.90;;;;;;5050841;28;20236;-84
2021/09/30 13:54:10;;;;;;;3.23;1.10;;;15.70;99.90;;;;;;5051434;28;20206;-84
2021/09/30 13:56:37;;;;;;;2.50;0.97;;;15.70;99.90;;;;;;5050448;28;20220;-84
2021/09/30 13:59:04;;;;;;;7.77;1.77;;;15.60;99.90;;;;;;5063059;28;20223;-91
2021/09/30 14:01:32;;;;;;;4.07;1.02;;;15.50;99.90;;;;;;5073290;28;20581;-88
2021/09/30 14:04:01;;;;;;;5.17;1.30;;;15.50;99.90;;;;;;5071187;28;20315;-90
2021/09/30 14:06:29;;;;;;;6.68;1.35;;;15.50;99.90;;;;;;5072156;28;20237;-87
2021/09/30 14:08:55;;;;;;;3.90;1.30;;;15.40;99.90;;;;;;5070659;28;20216;-91
2021/09/30 14:11:24;;;;;;;5.33;1.10;;;15.30;99.90;;;;;;5071255;28;20664;-89
2021/09/30 14:13:52;;;;;;;5.30;1.30;;;15.30;99.90;;;;;;5064971;28;20202;-93
2021/09/30 14:16:20;;;;;;;4.13;1.87;;;15.20;99.90;;;;;;5051075;28;20269;-92
2021/09/30 14:18:47;;;;;;;3.93;1.53;;;15.10;99.90;;;;;;5052110;28;20202;-94
2021/09/30 14:21:16;;;;;;;9.27;1.70;;;15.20;99.90;;;;;;5052675;28;20763;-90
2021/09/30 14:23:43;;;;;;;7.13;1.60;;;15.10;99.90;;;;;;5051195;28;20606;-88
2021/09/30 14:26:11;;;;;;;8.17;2.13;;;15.00;99.90;;;;;;5062096;23;20204;-91
2021/09/30 14:28:40;;;;;;;8.10;1.77;;;14.90;99.90;;;;;;5085767;22;20287;-90
2021/09/30 14:31:07;;;;;;;8.03;1.93;;;14.90;99.90;;;;;;5091171;28;20258;-91
2021/09/30 14:33:34;;;;;;;6.50;2.00;;;14.90;99.90;;;;;;5092057;28;20228;-86
2021/09/30 14:36:02;;;;;;;8.50;2.10;;;14.80;99.90;;;;;;5091440;28;20196;-95
2021/09/30 14:38:31;;;;;;;7.37;1.40;;;14.70;99.90;;;;;;5073500;28;20303;-87
2021/09/30 14:40:58;;;;;;;5.80;1.60;;;14.70;99.90;;;;;;5091548;28;20197;-93
2021/09/30 14:43:29;;;;;;;7.53;1.30;;;14.70;99.90;;;;;;5090754;28;20580;-89
2021/09/30 14:45:56;;;;;;;6.33;1.57;;;14.60;99.90;;;;;;5091441;28;20873;-87
2021/09/30 14:48:23;;;;;;;8.73;1.97;;;14.60;99.90;;;;;;5090130;28;20606;-87
2021/09/30 14:50:51;;;;;;;12.43;2.40;;;14.50;99.90;;;;;;5090473;28;20201;-83
2021/09/30 14:53:18;;;;;;;4.80;1.40;;;14.40;99.90;;;;;;5075148;28;20217;-82
2021/09/30 14:55:46;;;;;;;7.10;1.97;;;14.30;99.90;;;;;;5067563;28;20482;-85
2021/09/30 14:58:13;;;;;;;5.77;2.17;;;14.30;99.90;;;;;;5068181;28;20197;-82
2021/09/30 15:00:40;;;;;;;7.13;2.00;;;14.20;99.90;;;;;;5083329;28;20216;-84
2021/09/30 15:03:07;;;;;;;9.00;2.43;;;14.20;99.90;;;;;;5088984;28;20605;-82
2021/09/30 15:05:34;;;;;;;8.47;2.07;;;14.20;99.90;;;;;;5081933;28;20739;-82
2021/09/30 15:08:02;;;;;;;8.70;1.93;;;14.10;99.90;;;;;;5080477;28;20208;-86
2021/09/30 15:10:30;;;;;;;6.80;2.10;;;14.10;99.90;;;;;;5086801;28;20215;-87
2021/09/30 15:12:58;;;;;;;4.93;2.00;;;14.00;99.90;;;;;;5086309;28;20232;-90
2021/09/30 15:15:26;;;;;;;4.57;1.90;;;13.90;99.90;;;;;;5085744;28;20209;-90
2021/09/30 15:17:56;;;;;;;7.00;2.23;;;13.80;99.90;;;;;;5088637;28;20924;-85
2021/09/30 15:23:11;;;;;;;12.93;2.17;;;13.70;99.90;;;;;;5064823;28;20181;-90
2021/09/30 15:25:40;;;;;;;8.10;2.10;;;13.60;99.90;;;;;;5068000;28;20190;-87
2021/09/30 15:28:10;;;;;;;9.13;2.40;;;13.60;99.90;;;;;;5070635;28;20235;-86
2021/09/30 15:30:40;;;;;;;4.80;1.93;;;13.60;99.90;;;;;;5069597;28;20202;-84
2021/09/30 15:33:07;;;;;;;9.50;2.13;;;13.60;99.90;;;;;;5069984;28;20221;-86